sensor_id;sensor_type;location;lat;lon;timestamp;P1;durP1;ratioP1;P2;durP2;ratioP2
48596;SDS011;34382;43.160;24.148;2023-12-29T00:03:06;24.15;;;14.13;;
48596;SDS011;34382;43.160;24.148;2023-12-29T00:04:38;27.40;;;13.77;;
48596;SDS011;34382;43.160;24.148;2023-12-29T00:06:10;23.25;;;14.32;;
48596;SDS011;34382;43.160;24.148;2023-12-29T00:07:43;27.00;;;15.00;;
48596;SDS011;34382;43.160;24.148;2023-12-29T00:09:15;27.17;;;13.90;;
48596;SDS011;34382;43.160;24.148;2023-12-29T00:10:47;23.33;;;13.93;;
48596;SDS011;34382;43.160;24.148;2023-12-29T00:12:20;26.88;;;14.77;;
48596;SDS011;34382;43.160;24.148;2023-12-29T00:13:52;29.08;;;15.35;;
48596;SDS011;34382;43.160;24.148;2023-12-29T00:15:24;21.73;;;12.57;;
48596;SDS011;34382;43.160;24.148;2023-12-29T00:16:56;20.83;;;11.27;;
48596;SDS011;34382;43.160;24.148;2023-12-29T00:18:29;20.25;;;10.77;;
48596;SDS011;34382;43.160;24.148;2023-12-29T00:20:01;16.48;;;9.88;;
48596;SDS011;34382;43.160;24.148;2023-12-29T00:21:35;15.40;;;9.57;;
48596;SDS011;34382;43.160;24.148;2023-12-29T00:23:08;18.80;;;9.90;;
48596;SDS011;34382;43.160;24.148;2023-12-29T00:24:40;15.90;;;8.70;;
48596;SDS011;34382;43.160;24.148;2023-12-29T00:26:12;20.77;;;9.73;;
48596;SDS011;34382;43.160;24.148;2023-12-29T00:27:44;14.32;;;8.55;;
48596;SDS011;34382;43.160;24.148;2023-12-29T00:29:17;16.25;;;8.40;;
48596;SDS011;34382;43.160;24.148;2023-12-29T00:30:49;15.25;;;8.18;;
48596;SDS011;34382;43.160;24.148;2023-12-29T00:32:32;15.65;;;8.88;;
48596;SDS011;34382;43.160;24.148;2023-12-29T00:34:04;17.20;;;7.85;;
48596;SDS011;34382;43.160;24.148;2023-12-29T00:35:37;15.50;;;8.57;;
48596;SDS011;34382;43.160;24.148;2023-12-29T00:37:13;15.60;;;8.52;;
48596;SDS011;34382;43.160;24.148;2023-12-29T00:38:45;16.23;;;9.05;;
48596;SDS011;34382;43.160;24.148;2023-12-29T00:40:17;17.65;;;9.30;;
48596;SDS011;34382;43.160;24.148;2023-12-29T00:41:50;17.40;;;9.85;;
48596;SDS011;34382;43.160;24.148;2023-12-29T00:43:22;18.85;;;11.02;;
48596;SDS011;34382;43.160;24.148;2023-12-29T00:44:55;20.73;;;10.37;;
48596;SDS011;34382;43.160;24.148;2023-12-29T00:46:27;16.85;;;8.98;;
48596;SDS011;34382;43.160;24.148;2023-12-29T00:47:59;17.30;;;9.18;;
48596;SDS011;34382;43.160;24.148;2023-12-29T00:49:32;16.48;;;8.60;;
48596;SDS011;34382;43.160;24.148;2023-12-29T00:51:04;15.13;;;8.93;;
48596;SDS011;34382;43.160;24.148;2023-12-29T00:52:38;16.77;;;8.55;;
48596;SDS011;34382;43.160;24.148;2023-12-29T00:54:10;13.82;;;8.05;;
48596;SDS011;34382;43.160;24.148;2023-12-29T00:55:42;18.83;;;8.38;;
48596;SDS011;34382;43.160;24.148;2023-12-29T00:57:15;15.70;;;8.23;;
48596;SDS011;34382;43.160;24.148;2023-12-29T00:58:50;15.88;;;8.50;;
48596;SDS011;34382;43.160;24.148;2023-12-29T01:00:22;14.18;;;7.75;;
48596;SDS011;34382;43.160;24.148;2023-12-29T01:01:54;13.85;;;8.13;;
48596;SDS011;34382;43.160;24.148;2023-12-29T01:03:26;12.40;;;7.40;;
48596;SDS011;34382;43.160;24.148;2023-12-29T01:04:59;13.93;;;7.88;;
48596;SDS011;34382;43.160;24.148;2023-12-29T01:06:31;16.83;;;8.15;;
48596;SDS011;34382;43.160;24.148;2023-12-29T01:08:03;14.43;;;7.90;;
48596;SDS011;34382;43.160;24.148;2023-12-29T01:09:39;14.77;;;8.35;;
48596;SDS011;34382;43.160;24.148;2023-12-29T01:11:14;13.50;;;7.20;;
48596;SDS011;34382;43.160;24.148;2023-12-29T01:12:46;15.00;;;7.68;;
48596;SDS011;34382;43.160;24.148;2023-12-29T01:14:19;16.08;;;7.30;;
48596;SDS011;34382;43.160;24.148;2023-12-29T01:15:51;13.68;;;7.78;;
48596;SDS011;34382;43.160;24.148;2023-12-29T01:17:24;13.90;;;7.40;;
48596;SDS011;34382;43.160;24.148;2023-12-29T01:18:56;15.25;;;7.78;;
48596;SDS011;34382;43.160;24.148;2023-12-29T01:20:29;14.43;;;6.97;;
48596;SDS011;34382;43.160;24.148;2023-12-29T01:22:01;15.88;;;8.43;;
48596;SDS011;34382;43.160;24.148;2023-12-29T01:23:33;15.25;;;7.93;;
48596;SDS011;34382;43.160;24.148;2023-12-29T01:25:05;15.80;;;8.20;;
48596;SDS011;34382;43.160;24.148;2023-12-29T01:26:38;14.90;;;7.88;;
48596;SDS011;34382;43.160;24.148;2023-12-29T01:28:11;13.50;;;8.23;;
48596;SDS011;34382;43.160;24.148;2023-12-29T01:29:43;14.52;;;7.70;;
48596;SDS011;34382;43.160;24.148;2023-12-29T01:31:15;13.95;;;7.32;;
48596;SDS011;34382;43.160;24.148;2023-12-29T01:32:48;13.65;;;7.57;;
48596;SDS011;34382;43.160;24.148;2023-12-29T01:34:20;15.10;;;7.85;;
48596;SDS011;34382;43.160;24.148;2023-12-29T01:35:52;15.07;;;7.40;;
48596;SDS011;34382;43.160;24.148;2023-12-29T01:37:24;13.82;;;7.80;;
48596;SDS011;34382;43.160;24.148;2023-12-29T01:38:57;13.18;;;6.85;;
48596;SDS011;34382;43.160;24.148;2023-12-29T01:40:29;16.45;;;8.38;;
48596;SDS011;34382;43.160;24.148;2023-12-29T01:42:01;13.27;;;6.88;;
48596;SDS011;34382;43.160;24.148;2023-12-29T01:43:34;16.33;;;8.05;;
48596;SDS011;34382;43.160;24.148;2023-12-29T01:45:08;15.27;;;6.97;;
48596;SDS011;34382;43.160;24.148;2023-12-29T01:46:55;13.98;;;7.22;;
48596;SDS011;34382;43.160;24.148;2023-12-29T01:48:29;12.82;;;6.88;;
48596;SDS011;34382;43.160;24.148;2023-12-29T01:50:01;16.40;;;7.32;;
48596;SDS011;34382;43.160;24.148;2023-12-29T01:53:06;13.68;;;7.63;;
48596;SDS011;34382;43.160;24.148;2023-12-29T01:54:39;17.35;;;8.93;;
48596;SDS011;34382;43.160;24.148;2023-12-29T01:56:15;16.80;;;8.70;;
48596;SDS011;34382;43.160;24.148;2023-12-29T01:57:47;16.35;;;9.02;;
48596;SDS011;34382;43.160;24.148;2023-12-29T01:59:20;13.95;;;8.10;;
48596;SDS011;34382;43.160;24.148;2023-12-29T02:00:57;15.18;;;8.38;;
48596;SDS011;34382;43.160;24.148;2023-12-29T02:02:29;14.73;;;7.32;;
48596;SDS011;34382;43.160;24.148;2023-12-29T02:04:01;16.83;;;7.40;;
48596;SDS011;34382;43.160;24.148;2023-12-29T02:05:33;16.35;;;7.88;;
48596;SDS011;34382;43.160;24.148;2023-12-29T02:07:06;14.73;;;7.38;;
48596;SDS011;34382;43.160;24.148;2023-12-29T02:08:40;15.27;;;7.65;;
48596;SDS011;34382;43.160;24.148;2023-12-29T02:10:13;14.75;;;8.10;;
48596;SDS011;34382;43.160;24.148;2023-12-29T02:11:48;13.95;;;6.90;;
48596;SDS011;34382;43.160;24.148;2023-12-29T02:13:20;17.73;;;8.63;;
48596;SDS011;34382;43.160;24.148;2023-12-29T02:14:54;15.65;;;8.13;;
48596;SDS011;34382;43.160;24.148;2023-12-29T02:18:13;13.13;;;7.30;;
48596;SDS011;34382;43.160;24.148;2023-12-29T02:19:49;14.73;;;8.00;;
48596;SDS011;34382;43.160;24.148;2023-12-29T02:21:25;15.75;;;7.75;;
48596;SDS011;34382;43.160;24.148;2023-12-29T02:22:57;14.55;;;7.80;;
48596;SDS011;34382;43.160;24.148;2023-12-29T02:24:31;17.38;;;7.75;;
48596;SDS011;34382;43.160;24.148;2023-12-29T02:26:07;11.63;;;6.95;;
48596;SDS011;34382;43.160;24.148;2023-12-29T02:29:31;13.25;;;7.07;;
48596;SDS011;34382;43.160;24.148;2023-12-29T02:31:08;14.98;;;7.38;;
48596;SDS011;34382;43.160;24.148;2023-12-29T02:32:44;12.98;;;6.97;;
48596;SDS011;34382;43.160;24.148;2023-12-29T02:34:21;13.40;;;6.97;;
48596;SDS011;34382;43.160;24.148;2023-12-29T02:37:26;12.35;;;6.35;;
48596;SDS011;34382;43.160;24.148;2023-12-29T02:38:59;14.32;;;7.32;;
48596;SDS011;34382;43.160;24.148;2023-12-29T02:40:31;13.98;;;7.00;;
48596;SDS011;34382;43.160;24.148;2023-12-29T02:42:04;12.43;;;6.30;;
48596;SDS011;34382;43.160;24.148;2023-12-29T02:43:36;12.60;;;6.40;;
48596;SDS011;34382;43.160;24.148;2023-12-29T02:45:09;15.10;;;7.03;;
48596;SDS011;34382;43.160;24.148;2023-12-29T02:46:42;14.50;;;6.72;;
48596;SDS011;34382;43.160;24.148;2023-12-29T02:48:14;12.63;;;7.03;;
48596;SDS011;34382;43.160;24.148;2023-12-29T02:49:47;12.68;;;7.32;;
48596;SDS011;34382;43.160;24.148;2023-12-29T02:51:21;14.93;;;7.30;;
48596;SDS011;34382;43.160;24.148;2023-12-29T02:52:53;13.15;;;6.78;;
48596;SDS011;34382;43.160;24.148;2023-12-29T02:54:25;12.90;;;6.65;;
48596;SDS011;34382;43.160;24.148;2023-12-29T02:55:57;13.82;;;7.10;;
48596;SDS011;34382;43.160;24.148;2023-12-29T02:57:29;14.10;;;6.43;;
48596;SDS011;34382;43.160;24.148;2023-12-29T02:59:02;11.50;;;6.22;;
48596;SDS011;34382;43.160;24.148;2023-12-29T03:00:34;17.50;;;9.20;;
48596;SDS011;34382;43.160;24.148;2023-12-29T03:02:07;16.52;;;8.45;;
48596;SDS011;34382;43.160;24.148;2023-12-29T03:03:39;14.30;;;7.40;;
48596;SDS011;34382;43.160;24.148;2023-12-29T03:05:11;14.80;;;8.83;;
48596;SDS011;34382;43.160;24.148;2023-12-29T03:06:44;13.60;;;6.65;;
48596;SDS011;34382;43.160;24.148;2023-12-29T03:08:17;13.03;;;7.13;;
48596;SDS011;34382;43.160;24.148;2023-12-29T03:09:49;18.17;;;9.25;;
48596;SDS011;34382;43.160;24.148;2023-12-29T03:11:22;18.20;;;8.52;;
48596;SDS011;34382;43.160;24.148;2023-12-29T03:12:54;14.82;;;8.23;;
48596;SDS011;34382;43.160;24.148;2023-12-29T03:14:27;15.00;;;8.23;;
48596;SDS011;34382;43.160;24.148;2023-12-29T03:15:59;14.40;;;8.65;;
48596;SDS011;34382;43.160;24.148;2023-12-29T03:17:33;13.85;;;6.93;;
48596;SDS011;34382;43.160;24.148;2023-12-29T03:19:06;14.40;;;7.07;;
48596;SDS011;34382;43.160;24.148;2023-12-29T03:20:38;15.20;;;7.22;;
48596;SDS011;34382;43.160;24.148;2023-12-29T03:22:11;13.57;;;7.65;;
48596;SDS011;34382;43.160;24.148;2023-12-29T03:23:43;12.93;;;7.88;;
48596;SDS011;34382;43.160;24.148;2023-12-29T03:25:15;14.95;;;7.00;;
48596;SDS011;34382;43.160;24.148;2023-12-29T03:26:48;15.25;;;7.80;;
48596;SDS011;34382;43.160;24.148;2023-12-29T03:28:20;14.93;;;7.07;;
48596;SDS011;34382;43.160;24.148;2023-12-29T03:29:52;16.50;;;7.97;;
48596;SDS011;34382;43.160;24.148;2023-12-29T03:31:24;14.70;;;7.32;;
48596;SDS011;34382;43.160;24.148;2023-12-29T03:32:57;14.85;;;7.20;;
48596;SDS011;34382;43.160;24.148;2023-12-29T03:34:35;17.20;;;8.65;;
48596;SDS011;34382;43.160;24.148;2023-12-29T03:36:08;14.52;;;7.88;;
48596;SDS011;34382;43.160;24.148;2023-12-29T03:37:41;13.48;;;7.68;;
48596;SDS011;34382;43.160;24.148;2023-12-29T03:39:13;15.73;;;7.63;;
48596;SDS011;34382;43.160;24.148;2023-12-29T03:40:45;13.48;;;7.10;;
48596;SDS011;34382;43.160;24.148;2023-12-29T03:42:18;13.38;;;6.53;;
48596;SDS011;34382;43.160;24.148;2023-12-29T03:43:50;12.90;;;6.38;;
48596;SDS011;34382;43.160;24.148;2023-12-29T03:45:25;13.07;;;6.35;;
48596;SDS011;34382;43.160;24.148;2023-12-29T03:46:57;11.77;;;6.70;;
48596;SDS011;34382;43.160;24.148;2023-12-29T03:48:32;15.88;;;6.57;;
48596;SDS011;34382;43.160;24.148;2023-12-29T03:50:04;12.63;;;6.63;;
48596;SDS011;34382;43.160;24.148;2023-12-29T03:51:38;15.07;;;6.93;;
48596;SDS011;34382;43.160;24.148;2023-12-29T03:53:10;12.23;;;6.90;;
48596;SDS011;34382;43.160;24.148;2023-12-29T03:54:42;12.50;;;6.05;;
48596;SDS011;34382;43.160;24.148;2023-12-29T03:56:15;15.07;;;7.10;;
48596;SDS011;34382;43.160;24.148;2023-12-29T03:59:23;14.20;;;6.50;;
48596;SDS011;34382;43.160;24.148;2023-12-29T04:00:55;11.52;;;5.80;;
48596;SDS011;34382;43.160;24.148;2023-12-29T04:02:27;10.82;;;6.97;;
48596;SDS011;34382;43.160;24.148;2023-12-29T04:04:00;14.30;;;7.20;;
48596;SDS011;34382;43.160;24.148;2023-12-29T04:05:32;13.15;;;6.70;;
48596;SDS011;34382;43.160;24.148;2023-12-29T04:07:04;16.52;;;7.55;;
48596;SDS011;34382;43.160;24.148;2023-12-29T04:08:37;13.20;;;6.70;;
48596;SDS011;34382;43.160;24.148;2023-12-29T04:10:10;13.93;;;7.30;;
48596;SDS011;34382;43.160;24.148;2023-12-29T04:11:42;15.43;;;7.32;;
48596;SDS011;34382;43.160;24.148;2023-12-29T04:13:14;14.93;;;7.63;;
48596;SDS011;34382;43.160;24.148;2023-12-29T04:14:47;14.68;;;7.07;;
48596;SDS011;34382;43.160;24.148;2023-12-29T04:16:19;16.73;;;7.78;;
48596;SDS011;34382;43.160;24.148;2023-12-29T04:17:51;14.15;;;7.25;;
48596;SDS011;34382;43.160;24.148;2023-12-29T04:19:23;11.43;;;6.63;;
48596;SDS011;34382;43.160;24.148;2023-12-29T04:20:56;17.30;;;7.75;;
48596;SDS011;34382;43.160;24.148;2023-12-29T04:22:28;17.73;;;9.10;;
48596;SDS011;34382;43.160;24.148;2023-12-29T04:24:01;24.50;;;12.30;;
48596;SDS011;34382;43.160;24.148;2023-12-29T04:25:33;22.02;;;10.98;;
48596;SDS011;34382;43.160;24.148;2023-12-29T04:27:06;16.27;;;9.75;;
48596;SDS011;34382;43.160;24.148;2023-12-29T04:28:38;22.80;;;11.02;;
48596;SDS011;34382;43.160;24.148;2023-12-29T04:30:10;15.13;;;9.40;;
48596;SDS011;34382;43.160;24.148;2023-12-29T04:31:45;17.27;;;10.55;;
48596;SDS011;34382;43.160;24.148;2023-12-29T04:33:17;17.70;;;9.68;;
48596;SDS011;34382;43.160;24.148;2023-12-29T04:34:49;19.25;;;9.82;;
48596;SDS011;34382;43.160;24.148;2023-12-29T04:36:22;18.20;;;9.15;;
48596;SDS011;34382;43.160;24.148;2023-12-29T04:37:54;22.48;;;10.18;;
48596;SDS011;34382;43.160;24.148;2023-12-29T04:39:26;17.23;;;9.05;;
48596;SDS011;34382;43.160;24.148;2023-12-29T04:40:58;17.42;;;10.23;;
48596;SDS011;34382;43.160;24.148;2023-12-29T04:42:30;20.17;;;10.73;;
48596;SDS011;34382;43.160;24.148;2023-12-29T04:44:05;19.48;;;9.80;;
48596;SDS011;34382;43.160;24.148;2023-12-29T04:45:37;23.73;;;10.85;;
48596;SDS011;34382;43.160;24.148;2023-12-29T04:47:09;20.77;;;11.23;;
48596;SDS011;34382;43.160;24.148;2023-12-29T04:48:42;20.73;;;10.45;;
48596;SDS011;34382;43.160;24.148;2023-12-29T04:50:14;22.48;;;10.75;;
48596;SDS011;34382;43.160;24.148;2023-12-29T04:51:46;18.30;;;10.43;;
48596;SDS011;34382;43.160;24.148;2023-12-29T04:54:52;20.05;;;10.82;;
48596;SDS011;34382;43.160;24.148;2023-12-29T04:56:24;21.92;;;11.20;;
48596;SDS011;34382;43.160;24.148;2023-12-29T04:57:56;22.83;;;10.95;;
48596;SDS011;34382;43.160;24.148;2023-12-29T04:59:29;23.17;;;10.88;;
48596;SDS011;34382;43.160;24.148;2023-12-29T05:01:04;20.27;;;10.20;;
48596;SDS011;34382;43.160;24.148;2023-12-29T05:02:37;17.15;;;10.27;;
48596;SDS011;34382;43.160;24.148;2023-12-29T05:04:09;16.67;;;9.55;;
48596;SDS011;34382;43.160;24.148;2023-12-29T05:05:46;21.20;;;9.98;;
48596;SDS011;34382;43.160;24.148;2023-12-29T05:07:18;17.83;;;10.52;;
48596;SDS011;34382;43.160;24.148;2023-12-29T05:08:51;17.25;;;11.23;;
48596;SDS011;34382;43.160;24.148;2023-12-29T05:10:23;25.17;;;13.48;;
48596;SDS011;34382;43.160;24.148;2023-12-29T05:11:55;19.92;;;10.38;;
48596;SDS011;34382;43.160;24.148;2023-12-29T05:13:27;17.90;;;10.02;;
48596;SDS011;34382;43.160;24.148;2023-12-29T05:15:00;22.77;;;12.23;;
48596;SDS011;34382;43.160;24.148;2023-12-29T05:16:32;21.10;;;12.25;;
48596;SDS011;34382;43.160;24.148;2023-12-29T05:18:05;18.03;;;10.60;;
48596;SDS011;34382;43.160;24.148;2023-12-29T05:19:38;19.60;;;11.57;;
48596;SDS011;34382;43.160;24.148;2023-12-29T05:21:17;24.35;;;12.90;;
48596;SDS011;34382;43.160;24.148;2023-12-29T05:22:49;21.80;;;13.10;;
48596;SDS011;34382;43.160;24.148;2023-12-29T05:24:22;26.55;;;12.38;;
48596;SDS011;34382;43.160;24.148;2023-12-29T05:25:54;25.13;;;14.25;;
48596;SDS011;34382;43.160;24.148;2023-12-29T05:27:26;19.85;;;11.25;;
48596;SDS011;34382;43.160;24.148;2023-12-29T05:28:59;20.45;;;11.85;;
48596;SDS011;34382;43.160;24.148;2023-12-29T05:30:31;18.75;;;11.40;;
48596;SDS011;34382;43.160;24.148;2023-12-29T05:32:04;18.55;;;10.57;;
48596;SDS011;34382;43.160;24.148;2023-12-29T05:35:10;18.50;;;10.25;;
48596;SDS011;34382;43.160;24.148;2023-12-29T05:36:45;17.98;;;10.48;;
48596;SDS011;34382;43.160;24.148;2023-12-29T05:38:21;18.83;;;10.43;;
48596;SDS011;34382;43.160;24.148;2023-12-29T05:39:53;17.42;;;8.77;;
48596;SDS011;34382;43.160;24.148;2023-12-29T05:41:25;19.08;;;10.07;;
48596;SDS011;34382;43.160;24.148;2023-12-29T05:42:57;14.60;;;8.65;;
48596;SDS011;34382;43.160;24.148;2023-12-29T05:44:30;15.45;;;8.18;;
48596;SDS011;34382;43.160;24.148;2023-12-29T05:46:02;15.00;;;7.72;;
48596;SDS011;34382;43.160;24.148;2023-12-29T05:47:34;16.60;;;8.18;;
48596;SDS011;34382;43.160;24.148;2023-12-29T05:49:06;19.95;;;11.70;;
48596;SDS011;34382;43.160;24.148;2023-12-29T05:50:39;29.02;;;16.65;;
48596;SDS011;34382;43.160;24.148;2023-12-29T05:52:11;50.03;;;28.55;;
48596;SDS011;34382;43.160;24.148;2023-12-29T05:53:44;46.28;;;22.83;;
48596;SDS011;34382;43.160;24.148;2023-12-29T05:55:16;41.95;;;23.98;;
48596;SDS011;34382;43.160;24.148;2023-12-29T05:56:49;48.08;;;27.55;;
48596;SDS011;34382;43.160;24.148;2023-12-29T05:58:22;42.00;;;22.75;;
48596;SDS011;34382;43.160;24.148;2023-12-29T05:59:54;35.45;;;18.88;;
48596;SDS011;34382;43.160;24.148;2023-12-29T06:01:26;37.72;;;21.58;;
48596;SDS011;34382;43.160;24.148;2023-12-29T06:02:59;34.75;;;17.38;;
48596;SDS011;34382;43.160;24.148;2023-12-29T06:04:31;20.95;;;11.73;;
48596;SDS011;34382;43.160;24.148;2023-12-29T06:06:03;22.30;;;13.43;;
48596;SDS011;34382;43.160;24.148;2023-12-29T06:07:36;22.27;;;13.40;;
48596;SDS011;34382;43.160;24.148;2023-12-29T06:09:11;17.45;;;8.15;;
48596;SDS011;34382;43.160;24.148;2023-12-29T06:10:43;17.83;;;7.72;;
48596;SDS011;34382;43.160;24.148;2023-12-29T06:12:16;15.52;;;8.68;;
48596;SDS011;34382;43.160;24.148;2023-12-29T06:13:48;23.80;;;12.95;;
48596;SDS011;34382;43.160;24.148;2023-12-29T06:15:20;27.00;;;14.70;;
48596;SDS011;34382;43.160;24.148;2023-12-29T06:16:53;32.00;;;17.10;;
48596;SDS011;34382;43.160;24.148;2023-12-29T06:18:25;29.50;;;17.35;;
48596;SDS011;34382;43.160;24.148;2023-12-29T06:19:58;28.67;;;17.70;;
48596;SDS011;34382;43.160;24.148;2023-12-29T06:21:30;37.35;;;18.52;;
48596;SDS011;34382;43.160;24.148;2023-12-29T06:23:03;48.63;;;25.77;;
48596;SDS011;34382;43.160;24.148;2023-12-29T06:24:35;45.05;;;22.65;;
48596;SDS011;34382;43.160;24.148;2023-12-29T06:26:13;61.95;;;31.20;;
48596;SDS011;34382;43.160;24.148;2023-12-29T06:27:49;46.70;;;23.33;;
48596;SDS011;34382;43.160;24.148;2023-12-29T06:30:54;41.50;;;20.30;;
48596;SDS011;34382;43.160;24.148;2023-12-29T06:32:27;42.22;;;22.73;;
48596;SDS011;34382;43.160;24.148;2023-12-29T06:33:59;71.32;;;36.38;;
48596;SDS011;34382;43.160;24.148;2023-12-29T06:35:32;73.50;;;36.17;;
48596;SDS011;34382;43.160;24.148;2023-12-29T06:37:04;87.63;;;41.40;;
48596;SDS011;34382;43.160;24.148;2023-12-29T06:38:36;65.63;;;32.22;;
48596;SDS011;34382;43.160;24.148;2023-12-29T06:40:11;46.50;;;26.85;;
48596;SDS011;34382;43.160;24.148;2023-12-29T06:41:44;56.92;;;31.48;;
48596;SDS011;34382;43.160;24.148;2023-12-29T06:43:16;52.13;;;27.33;;
48596;SDS011;34382;43.160;24.148;2023-12-29T06:44:48;62.95;;;35.33;;
48596;SDS011;34382;43.160;24.148;2023-12-29T06:46:20;55.55;;;29.83;;
48596;SDS011;34382;43.160;24.148;2023-12-29T06:47:53;58.40;;;33.08;;
48596;SDS011;34382;43.160;24.148;2023-12-29T06:49:25;50.88;;;29.17;;
48596;SDS011;34382;43.160;24.148;2023-12-29T06:50:58;38.20;;;25.87;;
48596;SDS011;34382;43.160;24.148;2023-12-29T06:52:30;40.08;;;23.88;;
48596;SDS011;34382;43.160;24.148;2023-12-29T06:54:06;39.83;;;22.85;;
48596;SDS011;34382;43.160;24.148;2023-12-29T06:55:38;36.43;;;20.70;;
48596;SDS011;34382;43.160;24.148;2023-12-29T06:57:10;34.40;;;20.00;;
48596;SDS011;34382;43.160;24.148;2023-12-29T06:58:46;35.17;;;20.83;;
48596;SDS011;34382;43.160;24.148;2023-12-29T07:00:18;38.30;;;22.38;;
48596;SDS011;34382;43.160;24.148;2023-12-29T07:01:51;32.90;;;22.02;;
48596;SDS011;34382;43.160;24.148;2023-12-29T07:03:23;33.78;;;20.13;;
48596;SDS011;34382;43.160;24.148;2023-12-29T07:04:55;38.20;;;25.45;;
48596;SDS011;34382;43.160;24.148;2023-12-29T07:06:28;38.40;;;25.70;;
48596;SDS011;34382;43.160;24.148;2023-12-29T07:08:00;38.50;;;25.33;;
48596;SDS011;34382;43.160;24.148;2023-12-29T07:09:33;33.28;;;19.65;;
48596;SDS011;34382;43.160;24.148;2023-12-29T07:11:09;27.83;;;16.65;;
48596;SDS011;34382;43.160;24.148;2023-12-29T07:12:45;24.02;;;15.38;;
48596;SDS011;34382;43.160;24.148;2023-12-29T07:14:17;19.33;;;11.20;;
48596;SDS011;34382;43.160;24.148;2023-12-29T07:15:50;19.08;;;10.52;;
48596;SDS011;34382;43.160;24.148;2023-12-29T07:17:22;18.52;;;9.90;;
48596;SDS011;34382;43.160;24.148;2023-12-29T07:18:54;16.88;;;9.63;;
48596;SDS011;34382;43.160;24.148;2023-12-29T07:20:27;16.17;;;9.03;;
48596;SDS011;34382;43.160;24.148;2023-12-29T07:22:00;16.98;;;8.75;;
48596;SDS011;34382;43.160;24.148;2023-12-29T07:23:32;17.02;;;9.68;;
48596;SDS011;34382;43.160;24.148;2023-12-29T07:25:04;19.60;;;8.77;;
48596;SDS011;34382;43.160;24.148;2023-12-29T07:26:37;16.63;;;8.60;;
48596;SDS011;34382;43.160;24.148;2023-12-29T07:28:09;14.45;;;7.75;;
48596;SDS011;34382;43.160;24.148;2023-12-29T07:29:44;14.75;;;8.30;;
48596;SDS011;34382;43.160;24.148;2023-12-29T07:31:22;13.55;;;7.20;;
48596;SDS011;34382;43.160;24.148;2023-12-29T07:32:54;14.68;;;7.80;;
48596;SDS011;34382;43.160;24.148;2023-12-29T07:34:27;14.82;;;8.00;;
48596;SDS011;34382;43.160;24.148;2023-12-29T07:35:59;15.90;;;8.77;;
48596;SDS011;34382;43.160;24.148;2023-12-29T07:37:32;18.27;;;9.55;;
48596;SDS011;34382;43.160;24.148;2023-12-29T07:39:04;23.90;;;10.93;;
48596;SDS011;34382;43.160;24.148;2023-12-29T07:40:36;16.65;;;8.45;;
48596;SDS011;34382;43.160;24.148;2023-12-29T07:42:09;15.55;;;8.73;;
48596;SDS011;34382;43.160;24.148;2023-12-29T07:43:42;17.67;;;8.75;;
48596;SDS011;34382;43.160;24.148;2023-12-29T07:45:18;18.33;;;9.25;;
48596;SDS011;34382;43.160;24.148;2023-12-29T07:46:50;16.60;;;8.77;;
48596;SDS011;34382;43.160;24.148;2023-12-29T07:48:22;17.00;;;8.20;;
48596;SDS011;34382;43.160;24.148;2023-12-29T07:49:55;17.40;;;8.60;;
48596;SDS011;34382;43.160;24.148;2023-12-29T07:51:27;15.65;;;8.43;;
48596;SDS011;34382;43.160;24.148;2023-12-29T07:53:00;18.33;;;8.82;;
48596;SDS011;34382;43.160;24.148;2023-12-29T07:54:34;13.95;;;7.72;;
48596;SDS011;34382;43.160;24.148;2023-12-29T07:56:07;18.90;;;9.43;;
48596;SDS011;34382;43.160;24.148;2023-12-29T07:57:39;16.50;;;8.32;;
48596;SDS011;34382;43.160;24.148;2023-12-29T07:59:11;20.77;;;10.45;;
48596;SDS011;34382;43.160;24.148;2023-12-29T08:00:43;16.88;;;9.95;;
48596;SDS011;34382;43.160;24.148;2023-12-29T08:02:16;14.20;;;8.48;;
48596;SDS011;34382;43.160;24.148;2023-12-29T08:03:48;17.10;;;8.77;;
48596;SDS011;34382;43.160;24.148;2023-12-29T08:05:20;16.55;;;8.65;;
48596;SDS011;34382;43.160;24.148;2023-12-29T08:06:53;19.23;;;11.45;;
48596;SDS011;34382;43.160;24.148;2023-12-29T08:08:25;18.92;;;9.60;;
48596;SDS011;34382;43.160;24.148;2023-12-29T08:09:58;17.40;;;9.00;;
48596;SDS011;34382;43.160;24.148;2023-12-29T08:11:31;17.70;;;9.20;;
48596;SDS011;34382;43.160;24.148;2023-12-29T08:13:03;17.70;;;8.95;;
48596;SDS011;34382;43.160;24.148;2023-12-29T08:14:35;14.07;;;8.20;;
48596;SDS011;34382;43.160;24.148;2023-12-29T08:16:08;16.48;;;8.75;;
48596;SDS011;34382;43.160;24.148;2023-12-29T08:17:40;14.20;;;7.97;;
48596;SDS011;34382;43.160;24.148;2023-12-29T08:19:15;15.38;;;10.20;;
48596;SDS011;34382;43.160;24.148;2023-12-29T08:20:48;18.20;;;10.27;;
48596;SDS011;34382;43.160;24.148;2023-12-29T08:22:20;21.70;;;9.45;;
48596;SDS011;34382;43.160;24.148;2023-12-29T08:23:53;15.73;;;8.63;;
48596;SDS011;34382;43.160;24.148;2023-12-29T08:25:26;17.25;;;9.93;;
48596;SDS011;34382;43.160;24.148;2023-12-29T08:26:58;17.50;;;10.38;;
48596;SDS011;34382;43.160;24.148;2023-12-29T08:28:30;18.20;;;10.60;;
48596;SDS011;34382;43.160;24.148;2023-12-29T08:30:02;25.42;;;12.25;;
48596;SDS011;34382;43.160;24.148;2023-12-29T08:31:35;19.63;;;9.80;;
48596;SDS011;34382;43.160;24.148;2023-12-29T08:33:07;16.90;;;9.13;;
48596;SDS011;34382;43.160;24.148;2023-12-29T08:34:40;19.00;;;9.45;;
48596;SDS011;34382;43.160;24.148;2023-12-29T08:36:12;16.77;;;9.57;;
48596;SDS011;34382;43.160;24.148;2023-12-29T08:37:45;15.07;;;8.65;;
48596;SDS011;34382;43.160;24.148;2023-12-29T08:39:23;14.95;;;8.13;;
48596;SDS011;34382;43.160;24.148;2023-12-29T08:40:56;14.70;;;8.55;;
48596;SDS011;34382;43.160;24.148;2023-12-29T08:42:28;13.18;;;7.63;;
48596;SDS011;34382;43.160;24.148;2023-12-29T08:44:01;13.52;;;7.45;;
48596;SDS011;34382;43.160;24.148;2023-12-29T08:45:33;12.38;;;7.50;;
48596;SDS011;34382;43.160;24.148;2023-12-29T08:47:05;14.57;;;9.00;;
48596;SDS011;34382;43.160;24.148;2023-12-29T08:48:40;16.13;;;9.98;;
48596;SDS011;34382;43.160;24.148;2023-12-29T08:50:12;15.18;;;9.15;;
48596;SDS011;34382;43.160;24.148;2023-12-29T08:51:46;20.80;;;9.95;;
48596;SDS011;34382;43.160;24.148;2023-12-29T08:53:19;19.90;;;10.43;;
48596;SDS011;34382;43.160;24.148;2023-12-29T08:54:51;17.08;;;9.55;;
48596;SDS011;34382;43.160;24.148;2023-12-29T08:56:23;20.70;;;10.00;;
48596;SDS011;34382;43.160;24.148;2023-12-29T08:57:59;16.65;;;9.93;;
48596;SDS011;34382;43.160;24.148;2023-12-29T08:59:32;18.90;;;9.20;;
48596;SDS011;34382;43.160;24.148;2023-12-29T09:01:04;17.50;;;9.55;;
48596;SDS011;34382;43.160;24.148;2023-12-29T09:02:37;16.05;;;9.07;;
48596;SDS011;34382;43.160;24.148;2023-12-29T09:04:09;16.75;;;9.23;;
48596;SDS011;34382;43.160;24.148;2023-12-29T09:05:41;17.00;;;9.55;;
48596;SDS011;34382;43.160;24.148;2023-12-29T09:07:13;14.93;;;9.20;;
48596;SDS011;34382;43.160;24.148;2023-12-29T09:08:46;17.98;;;10.38;;
48596;SDS011;34382;43.160;24.148;2023-12-29T09:10:19;19.05;;;9.60;;
48596;SDS011;34382;43.160;24.148;2023-12-29T09:11:53;18.88;;;9.85;;
48596;SDS011;34382;43.160;24.148;2023-12-29T09:13:25;16.90;;;9.45;;
48596;SDS011;34382;43.160;24.148;2023-12-29T09:14:58;18.58;;;10.43;;